createdAt,value
2019-03-10T00:01:44.004Z,1.80
2019-03-10T00:04:14.637Z,1.90
2019-03-10T00:06:45.647Z,2.23
2019-03-10T00:09:16.319Z,1.87
2019-03-10T00:11:46.998Z,2.17
2019-03-10T00:14:17.668Z,1.60
2019-03-10T00:16:48.262Z,2.47
2019-03-10T00:19:18.950Z,2.00
2019-03-10T00:21:49.796Z,2.10
2019-03-10T00:24:20.531Z,2.30
2019-03-10T00:26:51.376Z,2.07
2019-03-10T00:29:21.954Z,1.77
2019-03-10T00:31:52.788Z,2.83
2019-03-10T00:34:23.671Z,1.50
2019-03-10T00:36:54.652Z,2.20
2019-03-10T00:40:33.441Z,2.47
2019-03-10T00:44:09.531Z,2.53
2019-03-10T00:47:38.746Z,1.53
2019-03-10T00:51:22.513Z,1.90
2019-03-10T00:53:53.420Z,2.13
2019-03-10T00:56:24.083Z,2.53
2019-03-10T00:58:56.429Z,2.10
2019-03-10T01:01:27.551Z,1.63
2019-03-10T01:03:58.377Z,1.83
2019-03-10T01:06:29.011Z,1.63
2019-03-10T01:08:59.735Z,1.67
2019-03-10T01:11:30.852Z,1.80
2019-03-10T01:14:01.582Z,1.60
2019-03-10T01:16:33.248Z,2.20
2019-03-10T01:19:04.968Z,1.90
2019-03-10T01:21:38.859Z,2.17
2019-03-10T01:24:09.503Z,1.90
2019-03-10T01:26:40.253Z,1.83
2019-03-10T01:29:10.884Z,2.30
2019-03-10T01:32:11.834Z,2.30
2019-03-10T01:35:16.990Z,2.50
2019-03-10T01:37:47.623Z,1.50
2019-03-10T01:40:18.263Z,1.70
2019-03-10T01:42:48.940Z,2.80
2019-03-10T01:45:19.592Z,1.80
2019-03-10T01:47:50.256Z,1.73
2019-03-10T01:50:20.941Z,1.93
2019-03-10T01:52:51.663Z,1.67
2019-03-10T01:55:22.353Z,2.47
2019-03-10T01:57:53.002Z,1.80
2019-03-10T02:00:23.673Z,1.97
2019-03-10T02:02:54.445Z,1.77
2019-03-10T02:05:25.145Z,2.17
2019-03-10T02:07:55.805Z,2.53
2019-03-10T02:10:26.445Z,1.80
2019-03-10T02:12:57.403Z,1.90
2019-03-10T02:15:28.175Z,1.97
2019-03-10T02:17:59.193Z,2.17
2019-03-10T02:20:29.850Z,1.80
2019-03-10T02:23:00.974Z,1.90
2019-03-10T02:25:31.666Z,2.20
2019-03-10T02:28:02.922Z,1.50
2019-03-10T02:30:33.636Z,1.90
2019-03-10T02:33:04.530Z,2.00
2019-03-10T02:35:35.172Z,1.90
2019-03-10T02:38:05.858Z,1.63
2019-03-10T02:40:36.559Z,1.83
2019-03-10T02:43:07.260Z,1.60
2019-03-10T02:45:39.745Z,2.30
2019-03-10T02:48:10.458Z,1.90
2019-03-10T02:50:41.139Z,1.77
2019-03-10T02:53:11.823Z,2.00
2019-03-10T02:55:42.516Z,1.63
2019-03-10T02:58:13.157Z,1.40
2019-03-10T03:00:47.376Z,1.83
2019-03-10T03:03:18.132Z,1.80
2019-03-10T03:05:48.728Z,1.70
2019-03-10T03:08:19.392Z,2.33
2019-03-10T03:10:50.015Z,2.67
2019-03-10T03:13:20.685Z,1.83
2019-03-10T03:15:51.638Z,1.57
2019-03-10T03:18:22.261Z,1.87
2019-03-10T03:20:52.895Z,1.67
2019-03-10T03:23:23.607Z,2.07
2019-03-10T03:25:54.305Z,1.90
2019-03-10T03:28:25.037Z,1.53
2019-03-10T03:30:55.749Z,1.53
2019-03-10T03:33:26.535Z,1.67
2019-03-10T03:36:09.526Z,1.50
2019-03-10T03:38:45.322Z,2.03
2019-03-10T03:41:18.438Z,2.23
2019-03-10T03:43:49.090Z,1.83
2019-03-10T03:46:19.790Z,1.70
2019-03-10T03:48:50.415Z,1.70
2019-03-10T03:51:21.593Z,1.90
2019-03-10T03:53:52.213Z,1.73
2019-03-10T03:56:22.849Z,1.43
2019-03-10T03:58:53.546Z,1.70
2019-03-10T04:01:38.136Z,2.10
2019-03-10T04:04:08.914Z,1.53
2019-03-10T04:06:43.645Z,1.97
2019-03-10T04:09:14.379Z,1.70
2019-03-10T04:11:45.083Z,2.00
2019-03-10T04:14:15.800Z,2.23
2019-03-10T04:16:46.620Z,2.03
2019-03-10T04:19:17.244Z,1.93
2019-03-10T04:21:51.513Z,1.87
2019-03-10T04:24:22.206Z,1.90
2019-03-10T04:26:53.024Z,2.00
2019-03-10T04:29:23.677Z,2.00
2019-03-10T04:31:54.306Z,1.77
2019-03-10T04:34:24.962Z,1.90
2019-03-10T04:36:55.678Z,2.27
2019-03-10T04:39:26.387Z,1.63
2019-03-10T04:41:57.012Z,2.13
2019-03-10T04:44:27.657Z,2.00
2019-03-10T04:46:58.327Z,2.37
2019-03-10T04:49:28.995Z,1.90
2019-03-10T04:51:59.620Z,2.20
2019-03-10T04:54:52.160Z,2.03
2019-03-10T04:57:22.980Z,2.37
2019-03-10T04:59:53.648Z,2.33
2019-03-10T05:02:24.387Z,2.30
2019-03-10T05:04:55.119Z,2.73
2019-03-10T05:07:26.606Z,2.83
2019-03-10T05:09:57.226Z,2.63
2019-03-10T05:12:27.997Z,2.50
2019-03-10T05:14:58.631Z,2.53
2019-03-10T05:17:29.272Z,3.40
2019-03-10T05:19:59.927Z,3.37
2019-03-10T05:22:30.635Z,2.63
2019-03-10T05:25:01.526Z,2.70
2019-03-10T05:27:32.285Z,2.70
2019-03-10T05:30:16.587Z,2.93
2019-03-10T05:32:47.646Z,3.13
2019-03-10T05:35:18.506Z,3.00
2019-03-10T05:37:49.162Z,2.97
2019-03-10T05:40:19.907Z,3.27
2019-03-10T05:42:51.925Z,4.37
2019-03-10T05:45:24.171Z,3.70
2019-03-10T05:47:54.777Z,3.37
2019-03-10T05:50:25.436Z,2.70
2019-03-10T05:52:56.355Z,3.53
2019-03-10T05:55:29.334Z,3.20
2019-03-10T05:57:59.980Z,3.23
2019-03-10T06:00:42.202Z,4.03
2019-03-10T06:03:08.465Z,3.20
2019-03-10T06:05:39.333Z,3.00
2019-03-10T06:08:10.233Z,3.13
2019-03-10T06:10:41.403Z,3.57
2019-03-10T06:13:12.539Z,3.37
2019-03-10T06:15:45.687Z,3.80
2019-03-10T06:18:18.429Z,3.77
2019-03-10T06:20:51.138Z,3.40
2019-03-10T06:23:24.927Z,3.60
2019-03-10T06:26:00.644Z,4.13
2019-03-10T06:28:33.224Z,3.33
2019-03-10T06:31:04.101Z,3.43
2019-03-10T06:33:34.814Z,3.60
2019-03-10T06:36:07.136Z,3.17
2019-03-10T06:38:38.007Z,3.50
2019-03-10T06:41:09.565Z,3.37
2019-03-10T06:43:40.289Z,2.93
2019-03-10T06:46:11.507Z,3.37
2019-03-10T06:48:45.586Z,3.30
2019-03-10T06:51:16.283Z,3.70
2019-03-10T06:53:48.182Z,3.23
2019-03-10T06:56:18.834Z,3.17
2019-03-10T06:58:49.512Z,3.33
2019-03-10T07:01:21.531Z,2.87
2019-03-10T07:03:53.158Z,3.07
2019-03-10T07:06:24.219Z,3.90
2019-03-10T07:08:54.831Z,3.43
2019-03-10T07:11:25.565Z,2.87
2019-03-10T07:13:56.183Z,3.60
2019-03-10T07:16:28.757Z,2.93
2019-03-10T07:19:02.059Z,3.50
2019-03-10T07:21:32.840Z,3.00
2019-03-10T07:24:04.793Z,2.90
2019-03-10T07:26:35.490Z,3.37
2019-03-10T07:29:15.300Z,3.47
2019-03-10T07:32:14.090Z,2.70
2019-03-10T07:35:06.843Z,3.13
2019-03-10T07:38:04.807Z,3.00
2019-03-10T07:41:09.721Z,3.70
2019-03-10T07:43:52.040Z,2.73
2019-03-10T07:46:40.459Z,2.90
2019-03-10T07:49:18.223Z,3.37
2019-03-10T07:52:19.842Z,3.33
2019-03-10T07:55:06.102Z,3.43
2019-03-10T07:57:54.561Z,3.33
2019-03-10T08:00:49.935Z,3.40
2019-03-10T08:03:51.559Z,3.00
2019-03-10T08:06:34.956Z,4.27
2019-03-10T08:09:40.843Z,3.60
2019-03-10T08:12:27.989Z,3.23
2019-03-10T08:15:20.593Z,3.63
2019-03-10T08:18:12.905Z,3.50
2019-03-10T08:21:02.448Z,3.57
2019-03-10T08:23:42.160Z,3.17
2019-03-10T08:26:19.149Z,3.37
2019-03-10T08:29:18.401Z,3.00
2019-03-10T08:31:57.208Z,3.80
2019-03-10T08:34:52.090Z,3.40
2019-03-10T08:37:51.014Z,3.17
2019-03-10T08:40:43.048Z,4.07
2019-03-10T08:43:21.392Z,3.50
2019-03-10T08:46:07.905Z,3.30
2019-03-10T08:49:00.709Z,3.47
2019-03-10T08:51:49.229Z,4.03
2019-03-10T08:54:29.782Z,3.30
2019-03-10T08:57:10.852Z,3.57
2019-03-10T08:59:54.286Z,3.53
2019-03-10T09:02:46.761Z,3.27
2019-03-10T09:05:35.762Z,3.10
2019-03-10T09:08:40.815Z,2.93
2019-03-10T09:11:31.653Z,2.70
2019-03-10T09:14:11.834Z,9.77
2019-03-10T09:17:01.466Z,21.13
2019-03-10T09:20:06.322Z,4.30
2019-03-10T09:22:51.066Z,7.47
2019-03-10T09:25:44.815Z,5.27
2019-03-10T09:28:24.775Z,25.17
2019-03-10T09:31:09.007Z,23.93
2019-03-10T09:34:05.249Z,38.23
2019-03-10T09:36:58.047Z,6.07
2019-03-10T09:39:43.807Z,25.17
2019-03-10T09:42:36.155Z,16.30
2019-03-10T09:45:22.401Z,10.03
2019-03-10T09:48:10.358Z,37.03
2019-03-10T09:50:59.893Z,15.63
2019-03-10T09:53:50.039Z,32.23
2019-03-10T09:56:57.926Z,26.90
2019-03-10T09:59:44.432Z,38.63
2019-03-10T10:02:52.187Z,24.07
2019-03-10T10:05:47.549Z,17.23
2019-03-10T10:08:30.745Z,23.60
2019-03-10T10:11:26.523Z,22.53
2019-03-10T10:14:14.730Z,5.20
2019-03-10T10:17:19.416Z,35.20
2019-03-10T10:20:01.609Z,19.80
2019-03-10T10:22:45.180Z,13.60
2019-03-10T10:25:33.636Z,3.87
2019-03-10T10:28:18.236Z,5.53
2019-03-10T10:31:06.899Z,6.50
2019-03-10T10:33:55.484Z,6.67
2019-03-10T10:36:35.452Z,11.50
2019-03-10T10:39:35.542Z,10.33
2019-03-10T10:42:34.250Z,5.37
2019-03-10T10:45:24.167Z,4.97
2019-03-10T10:48:19.905Z,4.83
2019-03-10T10:51:07.676Z,3.77
2019-03-10T10:53:50.669Z,4.27
2019-03-10T10:56:40.727Z,2.47
2019-03-10T10:59:27.108Z,2.00
2019-03-10T11:02:19.895Z,3.03
2019-03-10T11:04:58.450Z,2.10
2019-03-10T11:07:40.710Z,1.97
2019-03-10T11:10:32.624Z,2.30
2019-03-10T11:13:28.284Z,2.53
2019-03-10T11:16:16.521Z,2.50
2019-03-10T11:19:00.670Z,2.43
2019-03-10T11:21:49.220Z,2.23
2019-03-10T11:24:42.632Z,2.30
2019-03-10T11:27:38.533Z,3.23
2019-03-10T11:30:22.640Z,2.67
2019-03-10T11:33:15.294Z,2.30
2019-03-10T11:36:20.179Z,2.90
2019-03-10T11:39:25.272Z,2.70
2019-03-10T11:42:14.784Z,3.27
2019-03-10T11:45:15.522Z,2.83
2019-03-10T11:48:08.888Z,3.20
2019-03-10T11:50:59.632Z,2.90
2019-03-10T11:53:39.071Z,3.10
2019-03-10T11:56:27.476Z,3.53
2019-03-10T11:59:15.661Z,3.40
2019-03-10T12:02:15.170Z,3.83
2019-03-10T12:04:59.354Z,4.13
2019-03-10T12:07:38.967Z,3.90
2019-03-10T12:10:10.380Z,3.43
2019-03-10T12:12:43.589Z,2.83
2019-03-10T12:15:14.772Z,3.00
2019-03-10T12:17:47.846Z,3.17
2019-03-10T12:20:18.542Z,4.63
2019-03-10T12:22:49.216Z,4.20
2019-03-10T12:25:19.897Z,3.90
2019-03-10T12:27:50.646Z,3.80
2019-03-10T12:30:21.307Z,3.73
2019-03-10T12:32:51.985Z,3.73
2019-03-10T12:35:33.554Z,3.50
2019-03-10T12:37:55.055Z,4.00
2019-03-10T12:40:26.398Z,4.60
2019-03-10T12:42:57.090Z,4.07
2019-03-10T12:45:28.043Z,3.83
2019-03-10T12:47:58.694Z,3.40
2019-03-10T12:50:29.597Z,3.20
2019-03-10T12:53:00.302Z,3.20
2019-03-10T12:55:31.050Z,2.80
2019-03-10T12:58:01.994Z,2.90
2019-03-10T13:00:33.186Z,3.37
2019-03-10T13:03:04.742Z,3.27
2019-03-10T13:05:35.582Z,2.50
2019-03-10T13:08:06.420Z,2.63
2019-03-10T13:10:37.057Z,2.03
2019-03-10T13:13:09.654Z,2.10
2019-03-10T13:15:41.538Z,2.63
2019-03-10T13:18:12.282Z,2.17
2019-03-10T13:20:43.459Z,2.67
2019-03-10T13:23:14.248Z,2.07
2019-03-10T13:25:45.030Z,3.30
2019-03-10T13:28:16.905Z,2.97
2019-03-10T13:30:47.846Z,3.43
2019-03-10T13:33:18.535Z,2.60
2019-03-10T13:35:49.260Z,2.03
2019-03-10T13:38:19.982Z,2.37
2019-03-10T13:40:50.873Z,2.77
2019-03-10T13:43:23.729Z,1.93
2019-03-10T13:45:54.507Z,2.07
2019-03-10T13:48:25.169Z,1.93
2019-03-10T13:50:55.886Z,1.80
2019-03-10T13:53:26.967Z,2.43
2019-03-10T13:55:57.850Z,1.93
2019-03-10T13:58:28.843Z,2.07
2019-03-10T14:00:59.692Z,2.20
2019-03-10T14:03:31.213Z,2.27
2019-03-10T14:06:01.857Z,2.67
2019-03-10T14:08:35.368Z,2.07
2019-03-10T14:11:06.125Z,2.40
2019-03-10T14:13:36.817Z,2.97
2019-03-10T14:16:07.465Z,2.47
2019-03-10T14:18:38.718Z,2.10
2019-03-10T14:21:09.607Z,1.80
2019-03-10T14:23:40.671Z,1.93
2019-03-10T14:26:11.378Z,1.70
2019-03-10T14:28:42.237Z,1.93
2019-03-10T14:31:14.086Z,2.23
2019-03-10T14:33:46.402Z,4.10
2019-03-10T14:36:18.172Z,2.57
2019-03-10T14:38:48.842Z,1.87
2019-03-10T14:41:19.801Z,1.70
2019-03-10T14:43:50.392Z,2.00
2019-03-10T14:46:21.072Z,2.33
2019-03-10T14:48:51.809Z,1.93
2019-03-10T14:51:23.274Z,1.97
2019-03-10T14:53:53.910Z,2.20
2019-03-10T14:56:24.589Z,2.00
2019-03-10T14:58:55.371Z,1.87
2019-03-10T15:01:26.196Z,3.10
2019-03-10T15:03:57.148Z,1.90
2019-03-10T15:06:27.873Z,1.93
2019-03-10T15:08:59.550Z,2.03
2019-03-10T15:11:33.658Z,2.40
2019-03-10T15:14:11.221Z,1.80
2019-03-10T15:16:42.157Z,2.30
2019-03-10T15:19:12.802Z,2.27
2019-03-10T15:21:44.207Z,2.10
2019-03-10T15:24:14.803Z,2.00
2019-03-10T15:26:46.202Z,2.23
2019-03-10T15:29:17.031Z,2.57
2019-03-10T15:31:47.730Z,1.70
2019-03-10T15:34:18.400Z,2.07
2019-03-10T15:36:50.255Z,2.20
2019-03-10T15:39:20.916Z,2.10
2019-03-10T15:41:51.564Z,2.33
2019-03-10T15:44:22.216Z,2.80
2019-03-10T15:46:52.954Z,2.53
2019-03-10T15:49:23.672Z,2.70
2019-03-10T15:51:54.328Z,2.63
2019-03-10T15:54:25.223Z,3.20
2019-03-10T15:56:55.841Z,2.40
2019-03-10T15:59:26.899Z,2.70
2019-03-10T16:01:57.580Z,2.30
2019-03-10T16:04:28.312Z,2.20
2019-03-10T16:06:58.996Z,3.20
2019-03-10T16:09:29.667Z,2.47
2019-03-10T16:12:03.106Z,2.67
2019-03-10T16:14:34.007Z,2.43
2019-03-10T16:17:04.811Z,2.20
2019-03-10T16:19:36.027Z,2.57
2019-03-10T16:22:06.687Z,2.50
2019-03-10T16:24:39.874Z,2.00
2019-03-10T16:27:10.510Z,2.53
2019-03-10T16:29:41.246Z,2.60
2019-03-10T16:32:11.907Z,2.00
2019-03-10T16:34:42.522Z,2.77
2019-03-10T16:37:13.189Z,2.93
2019-03-10T16:39:45.386Z,3.23
2019-03-10T16:42:16.684Z,4.20
2019-03-10T16:44:47.342Z,4.00
2019-03-10T16:47:18.149Z,4.43
2019-03-10T16:49:58.940Z,4.10
2019-03-10T16:52:30.147Z,4.20
2019-03-10T16:55:00.752Z,4.10
2019-03-10T16:57:31.872Z,4.13
2019-03-10T17:00:02.504Z,4.20
2019-03-10T17:02:33.334Z,5.80
2019-03-10T17:05:03.952Z,4.03
2019-03-10T17:07:34.595Z,3.90
2019-03-10T17:10:05.573Z,4.40
2019-03-10T17:12:37.314Z,3.90
2019-03-10T17:15:10.635Z,4.30
2019-03-10T17:17:41.992Z,4.67
2019-03-10T17:20:14.414Z,4.00
2019-03-10T17:22:47.117Z,5.27
2019-03-10T17:25:17.876Z,3.30
2019-03-10T17:27:49.805Z,3.30
2019-03-10T17:30:22.095Z,3.00
2019-03-10T17:32:52.802Z,3.60
2019-03-10T17:35:23.603Z,3.00
2019-03-10T17:37:54.250Z,3.30
2019-03-10T17:40:24.925Z,4.07
2019-03-10T17:42:55.904Z,3.80
2019-03-10T17:45:26.947Z,3.00
2019-03-10T17:47:59.079Z,3.97
2019-03-10T17:50:29.768Z,3.67
2019-03-10T17:53:01.136Z,3.83
2019-03-10T17:55:32.038Z,3.50
2019-03-10T17:58:02.742Z,3.97
2019-03-10T18:00:34.264Z,3.30
2019-03-10T18:03:05.022Z,4.00
2019-03-10T18:05:35.976Z,6.77
2019-03-10T18:08:06.674Z,6.73
2019-03-10T18:10:38.501Z,5.40
2019-03-10T18:13:11.284Z,4.23
2019-03-10T18:15:43.796Z,5.90
2019-03-10T18:18:14.492Z,6.53
2019-03-10T18:20:45.349Z,6.57
2019-03-10T18:23:16.042Z,5.80
2019-03-10T18:25:47.607Z,7.40
2019-03-10T18:28:18.396Z,7.13
2019-03-10T18:30:49.613Z,7.83
2019-03-10T18:33:20.388Z,6.00
2019-03-10T18:35:51.549Z,8.03
2019-03-10T18:38:22.276Z,8.20
2019-03-10T18:40:52.942Z,7.40
2019-03-10T18:43:25.087Z,5.33
2019-03-10T18:45:56.988Z,6.57
2019-03-10T18:48:27.737Z,5.50
2019-03-10T18:50:58.377Z,4.77
2019-03-10T18:53:29.031Z,4.10
2019-03-10T18:55:59.694Z,3.77
2019-03-10T18:58:32.423Z,2.70
2019-03-10T19:01:03.067Z,2.50
2019-03-10T19:03:33.746Z,2.70
2019-03-10T19:06:04.453Z,2.60
2019-03-10T19:08:35.115Z,2.80
2019-03-10T19:11:05.870Z,2.30
2019-03-10T19:13:36.687Z,3.00
2019-03-10T19:16:07.430Z,2.10
2019-03-10T19:18:38.411Z,3.27
2019-03-10T19:21:09.138Z,2.60
2019-03-10T19:23:40.202Z,2.60
2019-03-10T19:26:11.461Z,2.53
2019-03-10T19:28:42.495Z,3.50
2019-03-10T19:31:14.562Z,2.90
2019-03-10T19:33:46.300Z,2.00
2019-03-10T19:36:17.065Z,1.93
2019-03-10T19:38:47.885Z,1.93
2019-03-10T19:41:19.026Z,1.90
2019-03-10T19:43:49.983Z,1.40
2019-03-10T19:46:20.624Z,1.80
2019-03-10T19:48:52.147Z,2.10
2019-03-10T19:51:23.544Z,2.40
2019-03-10T19:53:54.659Z,2.60
2019-03-10T19:56:25.343Z,2.87
2019-03-10T19:58:57.580Z,2.50
2019-03-10T20:01:28.864Z,2.27
2019-03-10T20:03:59.606Z,2.27
2019-03-10T20:06:30.380Z,2.73
2019-03-10T20:09:01.531Z,2.47
2019-03-10T20:11:34.529Z,3.13
2019-03-10T20:14:05.257Z,2.53
2019-03-10T20:16:36.091Z,2.40
2019-03-10T20:19:06.750Z,2.50
2019-03-10T20:21:37.717Z,2.87
2019-03-10T20:24:08.476Z,3.00
2019-03-10T20:26:39.277Z,2.87
2019-03-10T20:29:10.018Z,3.80
2019-03-10T20:31:41.418Z,3.90
2019-03-10T20:34:12.099Z,4.63
2019-03-10T20:36:43.686Z,4.73
2019-03-10T20:39:14.340Z,4.40
2019-03-10T20:41:45.007Z,5.03
2019-03-10T20:44:15.719Z,4.87
2019-03-10T20:46:48.540Z,5.17
2019-03-10T20:49:19.395Z,3.70
2019-03-10T20:51:50.582Z,3.77
2019-03-10T20:54:21.332Z,2.80
2019-03-10T20:56:51.998Z,3.10
2019-03-10T20:59:22.758Z,3.60
2019-03-10T21:01:53.653Z,2.73
2019-03-10T21:04:24.677Z,3.30
2019-03-10T21:06:55.810Z,3.40
2019-03-10T21:09:27.630Z,3.27
2019-03-10T21:11:59.251Z,3.67
2019-03-10T21:14:30.046Z,3.50
2019-03-10T21:17:00.866Z,4.30
2019-03-10T21:19:31.540Z,4.30
2019-03-10T21:22:02.241Z,3.63
2019-03-10T21:24:32.921Z,3.50
2019-03-10T21:27:03.563Z,3.87
2019-03-10T21:29:35.986Z,3.07
2019-03-10T21:32:07.466Z,3.00
2019-03-10T21:34:38.965Z,3.10
2019-03-10T21:37:10.243Z,2.80
2019-03-10T21:39:43.149Z,2.33
2019-03-10T21:42:14.480Z,2.63
2019-03-10T21:44:45.679Z,2.70
2019-03-10T21:47:16.376Z,2.60
2019-03-10T21:49:47.028Z,2.30
2019-03-10T21:52:19.131Z,2.03
2019-03-10T21:54:50.528Z,1.97
2019-03-10T21:57:21.245Z,2.47
2019-03-10T21:59:51.886Z,2.00
2019-03-10T22:02:22.680Z,1.90
2019-03-10T22:04:54.134Z,2.30
2019-03-10T22:07:25.728Z,1.80
2019-03-10T22:09:57.517Z,1.77
2019-03-10T22:12:28.222Z,2.03
2019-03-10T22:14:59.507Z,2.00
2019-03-10T22:17:30.648Z,1.80
2019-03-10T22:20:02.184Z,2.33
2019-03-10T22:22:32.939Z,2.27
2019-03-10T22:25:12.164Z,2.07
2019-03-10T22:27:36.110Z,2.13
2019-03-10T22:30:07.599Z,2.10
2019-03-10T22:32:38.379Z,2.13
2019-03-10T22:35:09.199Z,2.63
2019-03-10T22:37:40.014Z,2.13
2019-03-10T22:40:11.798Z,2.10
2019-03-10T22:42:44.177Z,2.40
2019-03-10T22:45:15.764Z,2.30
2019-03-10T22:47:46.402Z,2.70
2019-03-10T22:50:17.282Z,2.93
2019-03-10T22:52:48.227Z,3.67
2019-03-10T22:55:19.049Z,4.43
2019-03-10T22:57:50.486Z,5.03
2019-03-10T23:00:21.931Z,5.10
2019-03-10T23:02:52.601Z,5.43
2019-03-10T23:05:23.343Z,5.27
2019-03-10T23:07:54.002Z,5.37
2019-03-10T23:10:24.639Z,5.00
2019-03-10T23:12:55.562Z,5.50
2019-03-10T23:15:26.248Z,5.73
2019-03-10T23:17:56.939Z,5.63
2019-03-10T23:20:27.589Z,6.10
2019-03-10T23:22:58.226Z,6.37
2019-03-10T23:25:28.879Z,6.57
2019-03-10T23:27:59.564Z,6.70
2019-03-10T23:30:30.218Z,7.07
2019-03-10T23:33:01.144Z,6.97
2019-03-10T23:35:31.771Z,7.83
2019-03-10T23:38:02.927Z,8.03
2019-03-10T23:40:33.934Z,8.37
2019-03-10T23:43:05.342Z,8.90
2019-03-10T23:45:35.991Z,7.67
2019-03-10T23:48:07.233Z,8.57
2019-03-10T23:50:37.943Z,8.03
2019-03-10T23:53:08.725Z,8.83
2019-03-10T23:55:39.320Z,8.67
2019-03-10T23:58:10.165Z,8.40
